Time;durP1;ratioP1;P1;durP2;ratioP2;P2;SDS_P1;SDS_P2;PMS_P1;PMS_P2;Temp;Humidity;BMP_temperature;BMP_pressure;BME280_temperature;BME280_humidity;BME280_pressure;Samples;Min_cycle;Max_cycle;Signal;HPM_P1;HPM_P2
2020/12/19 00:01:05;;;;;;;375.75;340.75;;;;;;;;;;5030916;28;20087;-70
2020/12/19 00:03:31;;;;;;;346.42;312.70;;;;;;;;;;5024265;28;20021;-71
2020/12/19 00:05:57;;;;;;;399.38;363.52;;;;;;;;;;5038078;28;20102;-69
2020/12/19 00:08:23;;;;;;;329.52;296.38;;;;;;;;;;5032154;28;20393;-69
2020/12/19 00:10:49;;;;;;;384.13;349.08;;;;;;;;;;5043799;28;20094;-70
2020/12/19 00:13:15;;;;;;;394.13;358.35;;;;;;;;;;5021708;28;20418;-69
2020/12/19 00:15:41;;;;;;;333.33;300.02;;;;;;;;;;5033221;28;20083;-71
2020/12/19 00:18:07;;;;;;;350.48;316.58;;;;;;;;;;5031638;28;20033;-72
2020/12/19 00:20:33;;;;;;;369.88;335.27;;;;;;;;;;5046655;28;20533;-68
2020/12/19 00:22:59;;;;;;;383.63;348.52;;;;;;;;;;5035645;28;20049;-71
2020/12/19 00:25:25;;;;;;;328.23;295.15;;;;;;;;;;5034927;28;20060;-70
2020/12/19 00:27:51;;;;;;;346.92;313.05;;;;;;;;;;5032887;28;20104;-72
2020/12/19 00:30:17;;;;;;;323.23;290.27;;;;;;;;;;5035086;28;20474;-71
2020/12/19 00:32:43;;;;;;;340.33;306.83;;;;;;;;;;5035905;28;20036;-70
2020/12/19 00:35:10;;;;;;;338.42;305.25;;;;;;;;;;5040730;28;20459;-70
2020/12/19 00:37:40;;;;;;;327.33;294.27;;;;;;;;;;5036222;28;20033;-69
2020/12/19 00:40:06;;;;;;;331.75;298.73;;;;;;;;;;5039348;28;20033;-71
2020/12/19 00:42:35;;;;;;;372.48;337.73;;;;;;;;;;5026305;28;20865;-70
2020/12/19 00:45:01;;;;;;;339.80;306.42;;;;;;;;;;5034821;28;20017;-71
2020/12/19 00:47:27;;;;;;;383.27;348.15;;;;;;;;;;5029709;28;20040;-67
2020/12/19 00:49:53;;;;;;;364.88;330.50;;;;;;;;;;5029268;28;20048;-69
2020/12/19 00:52:20;;;;;;;351.70;317.75;;;;;;;;;;5034486;28;20045;-71
2020/12/19 00:54:46;;;;;;;;;;;;;;;;;;5032833;28;20079;-67
2020/12/19 00:57:12;;;;;;;369.40;334.85;;;;;;;;;;5033745;28;20374;-72
2020/12/19 00:59:38;;;;;;;356.00;322.17;;;;;;;;;;5030090;28;20033;-71
2020/12/19 01:02:04;;;;;;;345.95;312.23;;;;;;;;;;5028012;28;20045;-71
2020/12/19 01:04:30;;;;;;;325.60;292.77;;;;;;;;;;5034347;28;20036;-72
2020/12/19 01:06:56;;;;;;;335.83;302.67;;;;;;;;;;5030173;28;20038;-72
2020/12/19 01:09:22;;;;;;;390.88;355.42;;;;;;;;;;5034191;28;20026;-71
2020/12/19 01:11:48;;;;;;;355.70;321.58;;;;;;;;;;5023868;28;20046;-67
2020/12/19 01:14:14;;;;;;;312.58;280.30;;;;;;;;;;5026960;28;20029;-72
2020/12/19 01:16:40;;;;;;;356.33;322.10;;;;;;;;;;5031761;28;20056;-67
2020/12/19 01:19:07;;;;;;;327.42;294.60;;;;;;;;;;5032596;28;20052;-72
2020/12/19 01:21:33;;;;;;;379.02;343.83;;;;;;;;;;5031951;28;20470;-71
2020/12/19 01:23:59;;;;;;;390.98;355.67;;;;;;;;;;5031430;28;20551;-71
2020/12/19 01:26:25;;;;;;;377.13;342.50;;;;;;;;;;5033728;28;20053;-72
2020/12/19 01:28:52;;;;;;;355.45;321.35;;;;;;;;;;5034677;28;20037;-72
2020/12/19 01:31:19;;;;;;;410.42;374.35;;;;;;;;;;5033826;28;20121;-71
2020/12/19 01:33:45;;;;;;;404.92;368.80;;;;;;;;;;5030410;28;20104;-71
2020/12/19 01:36:13;;;;;;;326.70;293.88;;;;;;;;;;5033097;28;20029;-71
2020/12/19 01:38:39;;;;;;;297.83;266.25;;;;;;;;;;5034520;28;20036;-72
2020/12/19 01:41:06;;;;;;;361.33;327.20;;;;;;;;;;5035961;28;20068;-72
2020/12/19 01:43:42;;;;;;;355.27;321.33;;;;;;;;;;5033203;28;20083;-70
2020/12/19 01:46:08;;;;;;;398.33;362.77;;;;;;;;;;5039467;28;20030;-72
2020/12/19 01:48:35;;;;;;;369.27;334.73;;;;;;;;;;5033187;28;20466;-71
2020/12/19 01:51:01;;;;;;;390.80;355.45;;;;;;;;;;5043366;28;20076;-72
2020/12/19 01:53:27;;;;;;;350.67;316.65;;;;;;;;;;5030774;28;20407;-71
2020/12/19 01:55:53;;;;;;;325.33;292.40;;;;;;;;;;5033091;28;20036;-68
2020/12/19 01:58:19;;;;;;;339.30;305.77;;;;;;;;;;5026593;28;20496;-72
2020/12/19 02:00:45;;;;;;;333.48;300.23;;;;;;;;;;5024292;28;20525;-71
2020/12/19 02:03:11;;;;;;;374.23;339.23;;;;;;;;;;5010706;28;20100;-66
2020/12/19 02:05:40;;;;;;;331.35;298.20;;;;;;;;;;5015580;28;20492;-66
2020/12/19 02:08:07;;;;;;;364.48;329.92;;;;;;;;;;5013474;28;20084;-71
2020/12/19 02:10:34;;;;;;;381.13;346.15;;;;;;;;;;5013550;28;20046;-67
2020/12/19 02:13:00;;;;;;;398.20;362.05;;;;;;;;;;5011829;28;20026;-64
2020/12/19 02:15:27;;;;;;;395.92;360.27;;;;;;;;;;5012907;28;20026;-64
2020/12/19 02:17:53;;;;;;;341.73;308.13;;;;;;;;;;5011153;28;20068;-64
2020/12/19 02:20:19;;;;;;;390.48;354.67;;;;;;;;;;5011322;28;20029;-64
2020/12/19 02:22:45;;;;;;;348.17;314.47;;;;;;;;;;5012201;28;20083;-64
2020/12/19 02:25:11;;;;;;;335.45;301.92;;;;;;;;;;5011714;28;20048;-64
2020/12/19 02:27:37;;;;;;;356.95;322.33;;;;;;;;;;5011757;28;20432;-66
2020/12/19 02:30:04;;;;;;;366.50;331.95;;;;;;;;;;5011523;28;20462;-68
2020/12/19 02:32:30;;;;;;;362.67;328.05;;;;;;;;;;5012083;28;20442;-69
2020/12/19 02:34:56;;;;;;;376.08;340.98;;;;;;;;;;5011862;28;20136;-69
2020/12/19 02:37:22;;;;;;;387.90;352.33;;;;;;;;;;5011856;28;20112;-70
2020/12/19 02:39:48;;;;;;;339.17;305.67;;;;;;;;;;5012601;28;20060;-69
2020/12/19 02:42:14;;;;;;;366.33;331.67;;;;;;;;;;5012652;28;20029;-68
2020/12/19 02:44:40;;;;;;;347.75;313.88;;;;;;;;;;5012195;28;20030;-69
2020/12/19 02:47:06;;;;;;;359.52;325.17;;;;;;;;;;5015323;28;20111;-70
2020/12/19 02:49:32;;;;;;;371.52;336.70;;;;;;;;;;5010572;28;20065;-67
2020/12/19 02:51:58;;;;;;;326.25;293.30;;;;;;;;;;5009226;28;20444;-68
2020/12/19 02:54:24;;;;;;;357.65;323.10;;;;;;;;;;5012551;28;20148;-68
2020/12/19 02:56:50;;;;;;;329.67;296.45;;;;;;;;;;5010661;28;20048;-68
2020/12/19 02:59:16;;;;;;;351.58;317.52;;;;;;;;;;5011781;28;20554;-69
2020/12/19 03:01:42;;;;;;;402.98;366.67;;;;;;;;;;5010829;28;20044;-68
2020/12/19 03:04:08;;;;;;;413.05;376.58;;;;;;;;;;5012168;28;20231;-67
2020/12/19 03:06:34;;;;;;;351.88;317.67;;;;;;;;;;5011885;28;20083;-67
2020/12/19 03:09:01;;;;;;;351.17;317.30;;;;;;;;;;5024897;28;20482;-70
2020/12/19 03:11:27;;;;;;;317.77;285.38;;;;;;;;;;5033193;28;20041;-70
2020/12/19 03:13:53;;;;;;;314.27;282.23;;;;;;;;;;5032725;28;20096;-70
2020/12/19 03:16:19;;;;;;;320.58;288.02;;;;;;;;;;5031593;28;20034;-70
2020/12/19 03:18:45;;;;;;;372.35;337.73;;;;;;;;;;5036148;28;20374;-70
2020/12/19 03:21:11;;;;;;;324.05;291.20;;;;;;;;;;5034522;28;20124;-71
2020/12/19 03:23:37;;;;;;;314.83;282.58;;;;;;;;;;5031412;28;20108;-71
2020/12/19 03:26:03;;;;;;;331.80;298.73;;;;;;;;;;5033937;28;20469;-70
2020/12/19 03:28:29;;;;;;;356.40;322.60;;;;;;;;;;5026957;28;20388;-69
2020/12/19 03:30:56;;;;;;;398.08;362.73;;;;;;;;;;5033623;28;20184;-70
2020/12/19 03:33:22;;;;;;;363.38;328.88;;;;;;;;;;5029840;28;20049;-70
2020/12/19 03:35:48;;;;;;;356.27;322.17;;;;;;;;;;5030946;28;20493;-70
2020/12/19 03:38:14;;;;;;;326.13;293.38;;;;;;;;;;5030306;28;20036;-70
2020/12/19 03:40:40;;;;;;;348.50;314.75;;;;;;;;;;5033472;28;20112;-69
2020/12/19 03:43:06;;;;;;;354.80;320.83;;;;;;;;;;5033055;28;20040;-69
2020/12/19 03:45:32;;;;;;;366.50;332.13;;;;;;;;;;5037285;28;20032;-70
2020/12/19 03:47:58;;;;;;;351.10;317.30;;;;;;;;;;5032400;28;20390;-70
2020/12/19 03:50:24;;;;;;;352.83;318.88;;;;;;;;;;5040553;28;20021;-70
2020/12/19 03:52:50;;;;;;;388.70;353.40;;;;;;;;;;5032654;28;20060;-70
2020/12/19 03:55:16;;;;;;;367.00;332.25;;;;;;;;;;5034998;28;20045;-71
2020/12/19 03:57:42;;;;;;;348.33;314.52;;;;;;;;;;5027085;28;20437;-71
2020/12/19 04:00:09;;;;;;;306.55;274.77;;;;;;;;;;5034247;28;20037;-70
2020/12/19 04:02:36;;;;;;;376.70;342.20;;;;;;;;;;5033010;28;20025;-70
2020/12/19 04:05:02;;;;;;;370.40;336.08;;;;;;;;;;5049379;28;20267;-70
2020/12/19 04:07:28;;;;;;;370.20;335.83;;;;;;;;;;5039889;28;20506;-70
2020/12/19 04:09:54;;;;;;;322.77;290.08;;;;;;;;;;5034710;28;20445;-67
2020/12/19 04:12:20;;;;;;;363.98;329.77;;;;;;;;;;5028195;28;20040;-70
2020/12/19 04:14:46;;;;;;;310.90;278.75;;;;;;;;;;5024362;28;20040;-70
2020/12/19 04:17:12;;;;;;;311.05;278.77;;;;;;;;;;5033162;28;20117;-70
2020/12/19 04:19:39;;;;;;;363.53;329.17;;;;;;;;;;5032684;28;20086;-70
2020/12/19 04:22:05;;;;;;;369.70;335.30;;;;;;;;;;5045123;28;20100;-70
2020/12/19 04:24:31;;;;;;;338.02;304.83;;;;;;;;;;5044786;28;20017;-70
2020/12/19 04:26:57;;;;;;;379.30;344.35;;;;;;;;;;5043171;28;20956;-70
2020/12/19 04:29:24;;;;;;;333.67;300.65;;;;;;;;;;5042435;28;20381;-66
2020/12/19 04:31:50;;;;;;;358.85;324.60;;;;;;;;;;5032069;28;20052;-65
2020/12/19 04:34:16;;;;;;;330.95;298.20;;;;;;;;;;5042985;28;20031;-70
2020/12/19 04:36:43;;;;;;;362.40;328.10;;;;;;;;;;5036818;28;20037;-66
2020/12/19 04:39:09;;;;;;;365.27;331.02;;;;;;;;;;5047529;28;20499;-70
2020/12/19 04:41:35;;;;;;;379.83;345.15;;;;;;;;;;5043537;28;20033;-70
2020/12/19 04:44:02;;;;;;;384.00;349.08;;;;;;;;;;5029073;28;20021;-67
2020/12/19 04:46:31;;;;;;;367.77;333.45;;;;;;;;;;5034550;28;20033;-70
2020/12/19 04:49:01;;;;;;;361.45;327.20;;;;;;;;;;5037817;28;20485;-70
2020/12/19 04:51:28;;;;;;;354.52;320.70;;;;;;;;;;5033424;28;20112;-70
2020/12/19 04:53:54;;;;;;;348.40;314.65;;;;;;;;;;5036194;28;20118;-70
2020/12/19 04:56:20;;;;;;;348.92;315.10;;;;;;;;;;5034390;28;20033;-70
2020/12/19 04:58:46;;;;;;;386.38;351.05;;;;;;;;;;5031733;28;20018;-69
2020/12/19 05:01:12;;;;;;;338.52;305.05;;;;;;;;;;5033743;28;20029;-70
2020/12/19 05:03:39;;;;;;;382.85;347.98;;;;;;;;;;5034670;28;20037;-70
2020/12/19 05:06:05;;;;;;;388.52;353.27;;;;;;;;;;5035968;28;20032;-70
2020/12/19 05:08:31;;;;;;;351.48;317.38;;;;;;;;;;5018735;28;20022;-70
2020/12/19 05:10:57;;;;;;;361.02;326.80;;;;;;;;;;5031597;28;20485;-70
2020/12/19 05:13:23;;;;;;;368.05;333.33;;;;;;;;;;5029697;28;20037;-70
2020/12/19 05:15:50;;;;;;;334.92;301.83;;;;;;;;;;5035380;28;20112;-70
2020/12/19 05:18:16;;;;;;;297.85;265.98;;;;;;;;;;5030935;28;20029;-70
2020/12/19 05:20:42;;;;;;;341.77;308.27;;;;;;;;;;5031136;28;20059;-69
2020/12/19 05:23:08;;;;;;;338.88;305.67;;;;;;;;;;5031821;28;20058;-71
2020/12/19 05:25:37;;;;;;;322.17;289.67;;;;;;;;;;5032839;28;20060;-70
2020/12/19 05:28:03;;;;;;;391.15;355.70;;;;;;;;;;5028368;28;20030;-70
2020/12/19 05:30:30;;;;;;;386.48;351.20;;;;;;;;;;5034190;28;20111;-65
2020/12/19 05:32:56;;;;;;;315.30;282.93;;;;;;;;;;5026051;28;20029;-70
2020/12/19 05:35:23;;;;;;;377.92;343.00;;;;;;;;;;5034154;28;20112;-70
2020/12/19 05:37:59;;;;;;;346.77;313.08;;;;;;;;;;5029109;28;20056;-69
2020/12/19 05:40:26;;;;;;;356.30;322.13;;;;;;;;;;5033746;28;20421;-69
2020/12/19 05:42:52;;;;;;;418.92;382.17;;;;;;;;;;5030966;28;20025;-70
2020/12/19 05:45:20;;;;;;;278.80;247.83;;;;;;;;;;5033057;28;20060;-70
2020/12/19 05:47:46;;;;;;;361.60;327.33;;;;;;;;;;5040399;28;20091;-67
2020/12/19 05:50:12;;;;;;;372.55;337.95;;;;;;;;;;5030982;28;20100;-70
2020/12/19 05:52:39;;;;;;;375.73;340.75;;;;;;;;;;5030415;28;20417;-70
2020/12/19 05:55:12;;;;;;;332.40;299.13;;;;;;;;;;5043282;28;20034;-70
2020/12/19 05:57:38;;;;;;;381.02;346.02;;;;;;;;;;5031148;28;20084;-68
2020/12/19 06:00:14;;;;;;;345.63;311.98;;;;;;;;;;5031730;28;20025;-69
2020/12/19 06:02:41;;;;;;;376.52;341.58;;;;;;;;;;5027349;28;21126;-70
2020/12/19 06:05:09;;;;;;;369.10;334.55;;;;;;;;;;5035987;28;20391;-70
2020/12/19 06:07:39;;;;;;;419.48;382.58;;;;;;;;;;5030433;28;20026;-67
2020/12/19 06:10:07;;;;;;;376.67;341.55;;;;;;;;;;5037138;28;20074;-70
2020/12/19 06:12:51;;;;;;;391.48;356.25;;;;;;;;;;5031388;28;20393;-70
2020/12/19 06:15:36;;;;;;;410.90;374.58;;;;;;;;;;5033809;28;20025;-70
2020/12/19 06:18:22;;;;;;;354.65;320.73;;;;;;;;;;5032515;28;20033;-70
2020/12/19 06:20:49;;;;;;;387.33;352.07;;;;;;;;;;5034975;28;20037;-70
2020/12/19 06:23:15;;;;;;;363.92;329.58;;;;;;;;;;5032802;28;20288;-69
2020/12/19 06:25:42;;;;;;;314.00;281.45;;;;;;;;;;5042828;28;20025;-70
2020/12/19 06:28:09;;;;;;;350.48;316.35;;;;;;;;;;5030773;28;20041;-70
2020/12/19 06:30:35;;;;;;;347.80;313.70;;;;;;;;;;5032122;28;20104;-69
2020/12/19 06:33:11;;;;;;;359.17;325.03;;;;;;;;;;5031124;28;20041;-70
2020/12/19 06:35:38;;;;;;;398.05;362.02;;;;;;;;;;5035328;28;20279;-70
2020/12/19 06:38:04;;;;;;;336.95;303.45;;;;;;;;;;5029851;28;20038;-70
2020/12/19 06:40:38;;;;;;;362.60;328.05;;;;;;;;;;5032716;28;20040;-70
2020/12/19 06:43:11;;;;;;;340.30;306.55;;;;;;;;;;5027493;28;20051;-69
2020/12/19 06:45:38;;;;;;;344.20;310.58;;;;;;;;;;5034386;28;20044;-68
2020/12/19 06:48:04;;;;;;;315.55;282.95;;;;;;;;;;5028371;28;20497;-70
2020/12/19 06:50:49;;;;;;;375.27;340.30;;;;;;;;;;5040439;28;20025;-69
2020/12/19 06:53:15;;;;;;;413.63;376.95;;;;;;;;;;5028905;28;20033;-70
2020/12/19 06:55:41;;;;;;;336.67;303.33;;;;;;;;;;5034612;28;20111;-70
2020/12/19 06:58:07;;;;;;;371.60;336.75;;;;;;;;;;5030455;28;20029;-71
2020/12/19 07:00:35;;;;;;;380.42;345.35;;;;;;;;;;5020426;28;20026;-70
2020/12/19 07:03:02;;;;;;;382.00;346.83;;;;;;;;;;5023948;28;20731;-70
2020/12/19 07:05:32;;;;;;;323.42;290.48;;;;;;;;;;5032067;28;20029;-70
2020/12/19 07:08:18;;;;;;;334.45;301.08;;;;;;;;;;5024263;28;20034;-70
2020/12/19 07:10:45;;;;;;;290.02;258.73;;;;;;;;;;5027906;28;20030;-70
2020/12/19 07:13:11;;;;;;;364.80;330.33;;;;;;;;;;5023502;28;20044;-71
2020/12/19 07:15:50;;;;;;;365.65;331.27;;;;;;;;;;5037097;28;20500;-70
2020/12/19 07:18:32;;;;;;;360.60;326.25;;;;;;;;;;5033811;28;20025;-71
2020/12/19 07:21:11;;;;;;;365.63;331.17;;;;;;;;;;5030910;28;20097;-71
2020/12/19 07:23:38;;;;;;;316.83;284.27;;;;;;;;;;5021506;28;20025;-69
2020/12/19 07:26:05;;;;;;;366.27;331.73;;;;;;;;;;5031158;28;20117;-70
2020/12/19 07:28:31;;;;;;;323.65;291.08;;;;;;;;;;5030125;28;20048;-71
2020/12/19 07:30:57;;;;;;;366.98;332.30;;;;;;;;;;5036124;28;20029;-66
2020/12/19 07:33:23;;;;;;;380.67;345.60;;;;;;;;;;5029344;28;20048;-69
2020/12/19 07:35:49;;;;;;;340.33;307.17;;;;;;;;;;5032048;28;20474;-71
2020/12/19 07:38:16;;;;;;;370.33;335.80;;;;;;;;;;5030473;28;20041;-71
2020/12/19 07:40:42;;;;;;;370.27;335.63;;;;;;;;;;5035154;28;20413;-71
2020/12/19 07:43:09;;;;;;;322.42;289.88;;;;;;;;;;5030099;28;20406;-71
2020/12/19 07:45:36;;;;;;;361.70;327.30;;;;;;;;;;5038675;28;20041;-71
2020/12/19 07:48:02;;;;;;;341.00;307.63;;;;;;;;;;5029531;28;20030;-71
2020/12/19 07:50:29;;;;;;;363.63;329.20;;;;;;;;;;5038732;28;20106;-69
2020/12/19 07:53:01;;;;;;;355.95;322.02;;;;;;;;;;5028986;28;20059;-70
2020/12/19 07:55:27;;;;;;;310.42;278.50;;;;;;;;;;5031009;28;20029;-71
2020/12/19 07:57:54;;;;;;;307.83;275.83;;;;;;;;;;5022110;28;20067;-71
2020/12/19 08:00:21;;;;;;;359.98;325.92;;;;;;;;;;5028787;28;20443;-71
2020/12/19 08:02:47;;;;;;;348.30;314.50;;;;;;;;;;5026813;28;20038;-71
2020/12/19 08:05:13;;;;;;;356.98;323.00;;;;;;;;;;5031875;28;20032;-71
2020/12/19 08:07:39;;;;;;;299.58;267.67;;;;;;;;;;5026053;28;20092;-70
2020/12/19 08:10:06;;;;;;;374.30;339.60;;;;;;;;;;5034263;28;20032;-69
2020/12/19 08:12:32;;;;;;;375.40;340.75;;;;;;;;;;5025225;28;20085;-71
2020/12/19 08:15:01;;;;;;;375.45;340.55;;;;;;;;;;5028035;28;20532;-69
2020/12/19 08:17:27;;;;;;;331.40;298.45;;;;;;;;;;5029628;28;20026;-70
2020/12/19 08:19:54;;;;;;;327.70;294.85;;;;;;;;;;5031375;28;20036;-71
2020/12/19 08:22:20;;;;;;;;;;;;;;;;;;5029985;28;20474;-70
2020/12/19 08:24:50;;;;;;;337.20;304.40;;;;;;;;;;5032769;28;19939;-70
2020/12/19 08:27:43;;;;;;;343.33;309.92;;;;;;;;;;5029054;28;20030;-71
2020/12/19 08:30:30;;;;;;;368.60;334.27;;;;;;;;;;5030788;28;20033;-68
2020/12/19 08:32:59;;;;;;;345.08;311.73;;;;;;;;;;5031900;28;20040;-69
2020/12/19 08:35:31;;;;;;;348.95;315.70;;;;;;;;;;5043316;28;20351;-71
2020/12/19 08:38:04;;;;;;;370.65;335.92;;;;;;;;;;5032782;28;20091;-71
2020/12/19 08:41:00;;;;;;;372.08;337.42;;;;;;;;;;5032947;28;20022;-70
2020/12/19 08:43:35;;;;;;;338.02;305.02;;;;;;;;;;5029124;28;20084;-70
2020/12/19 08:46:12;;;;;;;380.63;345.52;;;;;;;;;;5033276;28;20092;-70
2020/12/19 08:48:38;;;;;;;;;;;;;;;;;;5032261;28;20112;-71
2020/12/19 08:51:08;;;;;;;345.88;312.38;;;;;;;;;;5027364;28;20007;-71
2020/12/19 08:53:34;;;;;;;340.90;307.75;;;;;;;;;;5027705;28;20030;-70
2020/12/19 08:56:12;;;;;;;368.95;334.58;;;;;;;;;;5032817;28;20028;-69
2020/12/19 08:58:38;;;;;;;355.15;321.48;;;;;;;;;;5032624;28;20021;-70
2020/12/19 09:01:16;;;;;;;341.05;307.75;;;;;;;;;;5038092;28;20048;-70
2020/12/19 09:03:43;;;;;;;392.70;357.38;;;;;;;;;;5032213;28;20033;-71
2020/12/19 09:06:10;;;;;;;359.83;325.60;;;;;;;;;;5041243;28;20040;-70
2020/12/19 09:08:38;;;;;;;322.15;289.45;;;;;;;;;;5027744;28;20038;-68
2020/12/19 09:11:24;;;;;;;316.88;284.60;;;;;;;;;;5033195;28;20044;-71
2020/12/19 09:13:50;;;;;;;322.40;290.00;;;;;;;;;;5033164;28;20051;-70
2020/12/19 09:16:17;;;;;;;330.55;297.58;;;;;;;;;;5033296;28;20386;-70
2020/12/19 09:18:43;;;;;;;286.52;255.57;;;;;;;;;;5026881;28;20053;-70
2020/12/19 09:21:10;;;;;;;347.23;313.58;;;;;;;;;;5033093;28;20026;-67
2020/12/19 09:23:37;;;;;;;315.65;283.30;;;;;;;;;;5025184;28;20074;-71
2020/12/19 09:26:04;;;;;;;342.13;309.00;;;;;;;;;;5032158;28;20421;-71
2020/12/19 09:28:30;;;;;;;306.75;274.85;;;;;;;;;;5031188;28;20099;-71
2020/12/19 09:30:57;;;;;;;356.30;322.42;;;;;;;;;;5032584;28;20045;-71
2020/12/19 09:33:24;;;;;;;357.83;324.10;;;;;;;;;;5033176;28;20026;-71
2020/12/19 09:35:50;;;;;;;289.20;258.07;;;;;;;;;;5036608;28;20026;-72
2020/12/19 09:38:16;;;;;;;322.50;290.35;;;;;;;;;;5031280;28;20026;-72
2020/12/19 09:40:42;;;;;;;331.33;298.23;;;;;;;;;;5034682;28;20104;-70
2020/12/19 09:43:09;;;;;;;348.55;314.90;;;;;;;;;;5032534;28;20505;-71
2020/12/19 09:45:38;;;;;;;362.27;328.02;;;;;;;;;;5028283;28;20029;-70
2020/12/19 09:48:05;;;;;;;309.77;277.92;;;;;;;;;;5028211;28;20030;-68
2020/12/19 09:50:31;;;;;;;296.30;264.60;;;;;;;;;;5036063;28;20037;-66
2020/12/19 09:52:57;;;;;;;338.05;304.88;;;;;;;;;;5038594;28;20075;-66
2020/12/19 09:55:23;;;;;;;346.42;312.88;;;;;;;;;;5037449;28;20059;-71
2020/12/19 09:57:50;;;;;;;317.15;284.75;;;;;;;;;;5031641;28;20036;-68
2020/12/19 10:00:16;;;;;;;367.03;332.80;;;;;;;;;;5037529;28;20069;-67
2020/12/19 10:02:43;;;;;;;324.38;291.67;;;;;;;;;;5030823;28;20275;-69
2020/12/19 10:05:09;;;;;;;378.45;343.58;;;;;;;;;;5032240;28;20026;-67
2020/12/19 10:07:36;;;;;;;343.08;309.77;;;;;;;;;;5031237;28;20064;-69
2020/12/19 10:10:03;;;;;;;372.45;337.85;;;;;;;;;;5033180;28;20032;-67
2020/12/19 10:12:29;;;;;;;;;;;;;;;;;;5021669;28;20045;-69
2020/12/19 10:14:55;;;;;;;327.90;295.17;;;;;;;;;;5029371;28;19916;-67
2020/12/19 10:17:21;;;;;;;415.85;379.58;;;;;;;;;;5026292;28;20100;-66
2020/12/19 10:19:48;;;;;;;323.02;290.25;;;;;;;;;;5027449;28;20033;-67
2020/12/19 10:22:14;;;;;;;343.02;309.73;;;;;;;;;;5028621;28;20017;-70
2020/12/19 10:24:41;;;;;;;311.92;279.73;;;;;;;;;;5030660;28;20112;-70
2020/12/19 10:27:08;;;;;;;350.35;316.52;;;;;;;;;;5030284;28;20028;-68
2020/12/19 10:29:34;;;;;;;349.42;315.73;;;;;;;;;;5032330;28;20033;-70
2020/12/19 10:32:05;;;;;;;353.08;319.15;;;;;;;;;;5030292;28;20397;-71
2020/12/19 10:34:31;;;;;;;352.10;318.33;;;;;;;;;;5032553;28;20155;-67
2020/12/19 10:36:57;;;;;;;336.77;303.65;;;;;;;;;;5029383;28;20885;-70
2020/12/19 10:39:23;;;;;;;316.48;284.13;;;;;;;;;;5031384;28;20022;-70
2020/12/19 10:41:50;;;;;;;330.42;297.50;;;;;;;;;;5031224;28;20037;-68
2020/12/19 10:44:16;;;;;;;381.25;346.10;;;;;;;;;;5025415;28;20129;-69
2020/12/19 10:46:42;;;;;;;356.88;323.25;;;;;;;;;;5031780;28;20417;-68
2020/12/19 10:49:08;;;;;;;367.25;332.85;;;;;;;;;;5031136;28;20036;-70
2020/12/19 10:51:34;;;;;;;361.02;327.08;;;;;;;;;;5032382;28;20033;-70
2020/12/19 10:54:00;;;;;;;338.48;305.20;;;;;;;;;;5018781;28;20379;-70
2020/12/19 10:56:26;;;;;;;348.73;315.20;;;;;;;;;;5035444;28;20056;-70
2020/12/19 10:58:52;;;;;;;319.30;286.83;;;;;;;;;;5025794;28;20412;-70
2020/12/19 11:01:18;;;;;;;337.75;304.58;;;;;;;;;;5030154;28;20422;-70
2020/12/19 11:03:45;;;;;;;372.15;337.35;;;;;;;;;;5029720;28;20021;-70
2020/12/19 11:06:21;;;;;;;298.83;267.03;;;;;;;;;;5030559;28;20026;-70
2020/12/19 11:08:48;;;;;;;318.23;285.70;;;;;;;;;;5030656;28;20287;-70
2020/12/19 11:11:14;;;;;;;313.08;280.80;;;;;;;;;;5031517;28;20033;-70
2020/12/19 11:13:41;;;;;;;392.83;357.45;;;;;;;;;;5025069;28;21065;-70
2020/12/19 11:16:07;;;;;;;334.15;301.27;;;;;;;;;;5024226;28;20155;-69
2020/12/19 11:18:33;;;;;;;345.50;311.98;;;;;;;;;;5025527;28;20029;-69
2020/12/19 11:20:59;;;;;;;332.30;299.27;;;;;;;;;;5030474;28;20393;-68
2020/12/19 11:23:25;;;;;;;356.02;321.65;;;;;;;;;;5024487;28;20099;-68
2020/12/19 11:25:54;;;;;;;354.50;320.63;;;;;;;;;;5027644;28;20479;-69
2020/12/19 11:28:21;;;;;;;304.38;272.42;;;;;;;;;;5025244;28;20060;-69
2020/12/19 11:30:47;;;;;;;331.52;298.98;;;;;;;;;;5028345;28;20022;-69
2020/12/19 11:33:14;;;;;;;294.98;263.25;;;;;;;;;;5028555;28;20021;-67
2020/12/19 11:35:40;;;;;;;324.17;291.70;;;;;;;;;;5029796;28;20785;-70
2020/12/19 11:38:06;;;;;;;280.60;249.82;;;;;;;;;;5030075;28;20030;-69
2020/12/19 11:40:32;;;;;;;335.08;302.02;;;;;;;;;;5033586;28;20036;-69
2020/12/19 11:42:58;;;;;;;345.55;311.95;;;;;;;;;;5030316;28;20056;-69
2020/12/19 11:45:24;;;;;;;330.92;297.80;;;;;;;;;;5038458;28;20469;-69
2020/12/19 11:47:50;;;;;;;346.92;313.50;;;;;;;;;;5029701;28;20402;-69
2020/12/19 11:50:16;;;;;;;353.13;319.10;;;;;;;;;;5038459;28;20032;-69
2020/12/19 11:52:42;;;;;;;342.73;309.40;;;;;;;;;;5029821;28;20029;-69
2020/12/19 11:55:08;;;;;;;346.40;312.63;;;;;;;;;;5029618;28;20060;-70
2020/12/19 11:57:34;;;;;;;391.40;356.10;;;;;;;;;;5030693;28;20033;-69
2020/12/19 12:00:00;;;;;;;348.55;314.75;;;;;;;;;;5026191;28;20026;-68
2020/12/19 12:02:26;;;;;;;354.88;320.77;;;;;;;;;;5029944;28;20429;-69
2020/12/19 12:04:52;;;;;;;376.75;341.98;;;;;;;;;;5030721;28;20026;-67
2020/12/19 12:07:18;;;;;;;321.98;289.35;;;;;;;;;;5030111;28;20042;-69
2020/12/19 12:09:44;;;;;;;376.90;341.75;;;;;;;;;;5028305;28;20029;-69
2020/12/19 12:12:10;;;;;;;332.73;299.45;;;;;;;;;;5028897;28;20112;-68
2020/12/19 12:14:36;;;;;;;331.23;298.17;;;;;;;;;;5028922;28;20048;-69
2020/12/19 12:17:02;;;;;;;295.75;264.23;;;;;;;;;;5023583;28;20108;-68
2020/12/19 12:19:28;;;;;;;334.45;301.27;;;;;;;;;;5025644;28;20558;-69
2020/12/19 12:21:54;;;;;;;322.77;289.83;;;;;;;;;;5025105;28;20552;-68
2020/12/19 12:24:20;;;;;;;387.77;352.45;;;;;;;;;;5019032;28;20033;-69
2020/12/19 12:26:46;;;;;;;398.17;362.08;;;;;;;;;;5023388;28;20037;-66
2020/12/19 12:29:12;;;;;;;356.30;322.30;;;;;;;;;;5022058;28;20482;-67
2020/12/19 12:31:42;;;;;;;287.05;254.40;;;;;;;;;;5027353;28;20037;-66
2020/12/19 12:34:08;;;;;;;345.00;310.95;;;;;;;;;;5023523;28;20071;-69
2020/12/19 12:36:36;;;;;;;338.17;304.85;;;;;;;;;;5026457;28;20042;-69
2020/12/19 12:39:03;;;;;;;372.25;337.60;;;;;;;;;;5022921;28;20030;-67
2020/12/19 12:41:29;;;;;;;335.60;302.08;;;;;;;;;;5024413;28;22100;-68
2020/12/19 12:43:55;;;;;;;357.13;323.35;;;;;;;;;;5029059;28;20466;-69
2020/12/19 12:46:21;;;;;;;436.40;399.00;;;;;;;;;;5023906;28;20448;-66
2020/12/19 12:48:47;;;;;;;370.05;335.50;;;;;;;;;;5022233;28;20017;-70
2020/12/19 12:51:14;;;;;;;339.65;306.00;;;;;;;;;;5024213;28;20033;-70
2020/12/19 12:53:41;;;;;;;326.63;293.30;;;;;;;;;;5021652;28;20109;-70
2020/12/19 12:56:07;;;;;;;386.92;351.50;;;;;;;;;;5024576;28;20102;-67
2020/12/19 12:58:33;;;;;;;366.37;331.70;;;;;;;;;;5021833;28;20500;-67
2020/12/19 13:00:59;;;;;;;340.42;306.80;;;;;;;;;;5024597;28;20386;-67
2020/12/19 13:03:26;;;;;;;332.75;299.65;;;;;;;;;;5022930;28;20804;-67
2020/12/19 13:05:52;;;;;;;355.27;321.48;;;;;;;;;;5029874;28;20056;-67
2020/12/19 13:08:18;;;;;;;327.25;294.15;;;;;;;;;;5026391;28;20036;-68
2020/12/19 13:10:45;;;;;;;339.37;305.80;;;;;;;;;;5041217;28;20370;-68
2020/12/19 13:13:11;;;;;;;303.40;271.73;;;;;;;;;;5031937;28;20028;-68
2020/12/19 13:15:37;;;;;;;340.65;307.17;;;;;;;;;;5034374;28;20112;-68
2020/12/19 13:18:04;;;;;;;324.90;292.20;;;;;;;;;;5032375;28;20055;-68
2020/12/19 13:20:31;;;;;;;349.67;316.17;;;;;;;;;;5030346;28;20691;-67
2020/12/19 13:22:57;;;;;;;386.75;351.83;;;;;;;;;;5031337;28;20501;-68
2020/12/19 13:25:24;;;;;;;378.75;343.92;;;;;;;;;;5037444;28;20032;-68
2020/12/19 13:27:50;;;;;;;311.13;278.35;;;;;;;;;;5033040;28;20046;-68
2020/12/19 13:30:16;;;;;;;344.45;310.92;;;;;;;;;;5038210;28;20026;-68
2020/12/19 13:32:42;;;;;;;347.33;313.50;;;;;;;;;;5030990;28;20379;-68
2020/12/19 13:35:08;;;;;;;371.92;337.38;;;;;;;;;;5033312;28;20096;-68
2020/12/19 13:37:34;;;;;;;354.88;320.95;;;;;;;;;;5026043;28;20044;-68
2020/12/19 13:40:01;;;;;;;339.48;306.02;;;;;;;;;;5030770;28;20033;-68
2020/12/19 13:42:27;;;;;;;270.27;233.90;;;;;;;;;;5026169;28;20112;-68
2020/12/19 13:44:53;;;;;;;323.60;290.92;;;;;;;;;;5027747;28;20416;-68
2020/12/19 13:47:19;;;;;;;295.98;264.48;;;;;;;;;;5032902;28;20025;-68
2020/12/19 13:49:45;;;;;;;359.98;325.73;;;;;;;;;;5035382;28;20053;-68
2020/12/19 13:52:11;;;;;;;325.55;292.77;;;;;;;;;;5043704;28;20494;-68
2020/12/19 13:54:37;;;;;;;314.83;282.58;;;;;;;;;;5041381;28;20033;-68